DAL1628 KSEA-KLAX
Flight info
| Callsign | DAL1628 |
|---|---|
| Flight time | 2h 7m |
| Altitude | 35000 |
| Route | SUMMA2 SUMMA JINMO Q7 JAGWA BURGL IRNMN2 |
| Aircraft | B739/M-SDE2E3FGHIRWXY/LB1 |
Departure
| Time | 2026-04-25 01:05 |
|---|---|
| Airport | Seattle–Tacoma International Airport (KSEA) |
Arrival
| Time | 2026-04-25 03:12 |
|---|---|
| Airport | Los Angeles International Airport (KLAX) |
| Time | Latitude | Longitude | Altitude | Speed | Heading |
|---|---|---|---|---|---|
| 2026-04-25 00:46 | 47.44293 | -122.30362 | 393 ft | 0 kts | 134° |
| 2026-04-25 00:56 | 47.44293 | -122.30363 | 393 ft | 1 kts | 134° |
| 2026-04-25 00:57 | 47.44308 | -122.30390 | 393 ft | 4 kts | 112° |
| 2026-04-25 00:57 | 47.44313 | -122.30427 | 398 ft | 4 kts | 86° |
| 2026-04-25 00:57 | 47.44311 | -122.30467 | 390 ft | 4 kts | 91° |
| 2026-04-25 00:57 | 47.44314 | -122.30497 | 392 ft | 4 kts | 111° |
| 2026-04-25 00:58 | 47.44327 | -122.30530 | 393 ft | 4 kts | 145° |
| 2026-04-25 00:58 | 47.44349 | -122.30542 | 393 ft | 2 kts | 178° |
| 2026-04-25 00:58 | 47.44350 | -122.30542 | 393 ft | 1 kts | 178° |
| 2026-04-25 01:00 | 47.44325 | -122.30546 | 392 ft | 8 kts | 194° |
| 2026-04-25 01:00 | 47.44251 | -122.30596 | 389 ft | 15 kts | 205° |
| 2026-04-25 01:01 | 47.44132 | -122.30636 | 386 ft | 20 kts | 180° |
| 2026-04-25 01:01 | 47.43988 | -122.30637 | 382 ft | 21 kts | 181° |
| 2026-04-25 01:01 | 47.43845 | -122.30639 | 378 ft | 20 kts | 180° |
| 2026-04-25 01:01 | 47.43705 | -122.30639 | 373 ft | 20 kts | 180° |
| 2026-04-25 01:02 | 47.43592 | -122.30592 | 370 ft | 16 kts | 148° |
| 2026-04-25 01:02 | 47.43485 | -122.30561 | 369 ft | 17 kts | 180° |
| 2026-04-25 01:02 | 47.43353 | -122.30563 | 365 ft | 21 kts | 180° |
| 2026-04-25 01:02 | 47.43221 | -122.30587 | 362 ft | 16 kts | 209° |
| 2026-04-25 01:03 | 47.43177 | -122.30659 | 357 ft | 1 kts | 254° |
| 2026-04-25 01:03 | 47.43177 | -122.30660 | 357 ft | 0 kts | 254° |
| 2026-04-25 01:03 | 47.43176 | -122.30667 | 357 ft | 3 kts | 258° |
| 2026-04-25 01:03 | 47.43174 | -122.30732 | 357 ft | 9 kts | 269° |
| 2026-04-25 01:04 | 47.43186 | -122.30800 | 364 ft | 5 kts | 330° |
| 2026-04-25 01:04 | 47.43209 | -122.30803 | 361 ft | 2 kts | 0° |
| 2026-04-25 01:04 | 47.43257 | -122.30803 | 358 ft | 26 kts | 360° |
| 2026-04-25 01:04 | 47.43666 | -122.30800 | 369 ft | 90 kts | 0° |
| 2026-04-25 01:05 | 47.44471 | -122.30794 | 395 ft | 139 kts | 0° |
| 2026-04-25 01:05 | 47.45559 | -122.30781 | 619 ft | 163 kts | 357° |
| 2026-04-25 01:05 | 47.46711 | -122.30829 | 1229 ft | 169 kts | 356° |
| 2026-04-25 01:05 | 47.47890 | -122.30857 | 1956 ft | 168 kts | 358° |
| 2026-04-25 01:06 | 47.49032 | -122.30882 | 2568 ft | 173 kts | 357° |
| 2026-04-25 01:06 | 47.50323 | -122.30908 | 2785 ft | 198 kts | 359° |
| 2026-04-25 01:06 | 47.51777 | -122.30926 | 3112 ft | 216 kts | 359° |
| 2026-04-25 01:06 | 47.53333 | -122.30940 | 3501 ft | 235 kts | 360° |
| 2026-04-25 01:07 | 47.55033 | -122.30953 | 4024 ft | 249 kts | 1° |
| 2026-04-25 01:07 | 47.56708 | -122.30498 | 4938 ft | 245 kts | 26° |
| 2026-04-25 01:07 | 47.58006 | -122.28888 | 5791 ft | 248 kts | 54° |
| 2026-04-25 01:07 | 47.58611 | -122.26477 | 6586 ft | 257 kts | 82° |
| 2026-04-25 01:08 | 47.58392 | -122.23805 | 7292 ft | 269 kts | 101° |
| 2026-04-25 01:08 | 47.57813 | -122.21154 | 8093 ft | 272 kts | 104° |
| 2026-04-25 01:08 | 47.57091 | -122.18548 | 8901 ft | 278 kts | 118° |
| 2026-04-25 01:08 | 47.55728 | -122.16456 | 9652 ft | 290 kts | 142° |
| 2026-04-25 01:09 | 47.53856 | -122.15213 | 10255 ft | 305 kts | 163° |
| 2026-04-25 01:09 | 47.51686 | -122.14645 | 10463 ft | 329 kts | 169° |
| 2026-04-25 01:09 | 47.49339 | -122.14225 | 10653 ft | 351 kts | 171° |
| 2026-04-25 01:09 | 47.46851 | -122.13829 | 10953 ft | 367 kts | 172° |
| 2026-04-25 01:10 | 47.44321 | -122.13430 | 11504 ft | 374 kts | 172° |
| 2026-04-25 01:10 | 47.41687 | -122.13001 | 12164 ft | 378 kts | 172° |
| 2026-04-25 01:10 | 47.39093 | -122.12564 | 12787 ft | 383 kts | 172° |
| 2026-04-25 01:10 | 47.36425 | -122.12100 | 13406 ft | 389 kts | 172° |
| 2026-04-25 01:11 | 47.33727 | -122.11623 | 14031 ft | 394 kts | 172° |
| 2026-04-25 01:11 | 47.30986 | -122.11134 | 14586 ft | 398 kts | 172° |
| 2026-04-25 01:11 | 47.28221 | -122.10637 | 15168 ft | 402 kts | 172° |
| 2026-04-25 01:11 | 47.25429 | -122.10134 | 15745 ft | 406 kts | 173° |
| 2026-04-25 01:12 | 47.22609 | -122.09625 | 16338 ft | 410 kts | 173° |
| 2026-04-25 01:12 | 47.19763 | -122.09113 | 16897 ft | 414 kts | 173° |
| 2026-04-25 01:12 | 47.16893 | -122.08597 | 17444 ft | 418 kts | 173° |
| 2026-04-25 01:12 | 47.13988 | -122.08075 | 17976 ft | 423 kts | 173° |
| 2026-04-25 01:13 | 47.11057 | -122.07548 | 18522 ft | 426 kts | 173° |
| 2026-04-25 01:13 | 47.08141 | -122.07024 | 18984 ft | 430 kts | 173° |
| 2026-04-25 01:13 | 47.05160 | -122.06489 | 19467 ft | 434 kts | 173° |
| 2026-04-25 01:13 | 47.02153 | -122.05954 | 19977 ft | 437 kts | 173° |
| 2026-04-25 01:14 | 46.99126 | -122.05415 | 20495 ft | 439 kts | 173° |
| 2026-04-25 01:14 | 46.96087 | -122.04874 | 21004 ft | 442 kts | 173° |
| 2026-04-25 01:14 | 46.93023 | -122.04329 | 21478 ft | 445 kts | 173° |
| 2026-04-25 01:14 | 46.89930 | -122.03974 | 21944 ft | 448 kts | 181° |
| 2026-04-25 01:15 | 46.86818 | -122.04319 | 22435 ft | 449 kts | 188° |
| 2026-04-25 01:15 | 46.83709 | -122.04874 | 22939 ft | 451 kts | 188° |
| 2026-04-25 01:15 | 46.80580 | -122.05463 | 23382 ft | 455 kts | 188° |
| 2026-04-25 01:15 | 46.77426 | -122.06038 | 23766 ft | 458 kts | 188° |
| 2026-04-25 01:16 | 46.74254 | -122.06590 | 24168 ft | 460 kts | 188° |
| 2026-04-25 01:16 | 46.71068 | -122.07122 | 24578 ft | 461 kts | 188° |
| 2026-04-25 01:16 | 46.67876 | -122.07641 | 25047 ft | 462 kts | 188° |
| 2026-04-25 01:16 | 46.64722 | -122.08139 | 25446 ft | 463 kts | 188° |
| 2026-04-25 01:17 | 46.61511 | -122.08643 | 25850 ft | 465 kts | 189° |
| 2026-04-25 01:17 | 46.59337 | -122.08991 | 26129 ft | 466 kts | 189° |
| 2026-04-25 01:17 | 46.55056 | -122.09664 | 26589 ft | 468 kts | 189° |
| 2026-04-25 01:17 | 46.51812 | -122.10176 | 26970 ft | 470 kts | 189° |
| 2026-04-25 01:18 | 46.48554 | -122.10692 | 27339 ft | 472 kts | 189° |
| 2026-04-25 01:18 | 46.45279 | -122.11211 | 27704 ft | 474 kts | 189° |
| 2026-04-25 01:18 | 46.41991 | -122.11730 | 28061 ft | 476 kts | 189° |
| 2026-04-25 01:18 | 46.38683 | -122.12220 | 28404 ft | 479 kts | 187° |
| 2026-04-25 01:19 | 46.35329 | -122.12238 | 28645 ft | 487 kts | 177° |
| 2026-04-25 01:19 | 46.31953 | -122.11512 | 28928 ft | 492 kts | 172° |
| 2026-04-25 01:19 | 46.28575 | -122.10653 | 29218 ft | 494 kts | 172° |
| 2026-04-25 01:19 | 46.25243 | -122.09794 | 29551 ft | 495 kts | 172° |
| 2026-04-25 01:20 | 46.21840 | -122.08918 | 29870 ft | 496 kts | 172° |
| 2026-04-25 01:20 | 46.18444 | -122.08062 | 30310 ft | 494 kts | 172° |
| 2026-04-25 01:20 | 46.15066 | -122.07224 | 30703 ft | 492 kts | 173° |
| 2026-04-25 01:20 | 46.11695 | -122.06402 | 31072 ft | 491 kts | 173° |
| 2026-04-25 01:21 | 46.08324 | -122.05594 | 31328 ft | 492 kts | 173° |
| 2026-04-25 01:21 | 46.04938 | -122.04791 | 31577 ft | 494 kts | 173° |
| 2026-04-25 01:21 | 46.01547 | -122.03989 | 31875 ft | 494 kts | 173° |
| 2026-04-25 01:21 | 45.98159 | -122.03188 | 32198 ft | 493 kts | 173° |
| 2026-04-25 01:22 | 45.94771 | -122.02389 | 32523 ft | 493 kts | 174° |
| 2026-04-25 01:22 | 45.91398 | -122.01606 | 32935 ft | 489 kts | 173° |
| 2026-04-25 01:22 | 45.88087 | -122.00821 | 33209 ft | 490 kts | 173° |
| 2026-04-25 01:22 | 45.84712 | -122.00022 | 33341 ft | 493 kts | 173° |
| 2026-04-25 01:23 | 45.81318 | -121.99216 | 33554 ft | 495 kts | 173° |
| 2026-04-25 01:23 | 45.77930 | -121.98413 | 33876 ft | 494 kts | 173° |
| 2026-04-25 01:23 | 45.74544 | -121.97602 | 34200 ft | 492 kts | 173° |
| 2026-04-25 01:23 | 45.71184 | -121.96809 | 34597 ft | 488 kts | 173° |
| 2026-04-25 01:24 | 45.67836 | -121.96023 | 34842 ft | 487 kts | 173° |
| 2026-04-25 01:24 | 45.64493 | -121.95244 | 34990 ft | 488 kts | 174° |
| 2026-04-25 01:24 | 45.61134 | -121.94462 | 35016 ft | 490 kts | 173° |
| 2026-04-25 01:25 | 45.54449 | -121.92900 | 35015 ft | 489 kts | 173° |
| 2026-04-25 01:25 | 45.47763 | -121.91336 | 35020 ft | 485 kts | 174° |
| 2026-04-25 01:26 | 45.41117 | -121.89787 | 35011 ft | 483 kts | 174° |
| 2026-04-25 01:26 | 45.34496 | -121.88253 | 35030 ft | 482 kts | 174° |
| 2026-04-25 01:27 | 45.27871 | -121.86703 | 35020 ft | 483 kts | 174° |
| 2026-04-25 01:27 | 45.21236 | -121.85176 | 35029 ft | 483 kts | 174° |
| 2026-04-25 01:28 | 45.11290 | -121.82887 | 35029 ft | 486 kts | 174° |
| 2026-04-25 01:28 | 45.04608 | -121.81352 | 35027 ft | 487 kts | 174° |
| 2026-04-25 01:29 | 44.97896 | -121.79817 | 35025 ft | 489 kts | 174° |
| 2026-04-25 01:29 | 44.91165 | -121.78279 | 35021 ft | 491 kts | 174° |
| 2026-04-25 01:30 | 44.84414 | -121.76738 | 35033 ft | 492 kts | 174° |
| 2026-04-25 01:30 | 44.77659 | -121.75200 | 35051 ft | 491 kts | 174° |
| 2026-04-25 01:31 | 44.70959 | -121.73676 | 35035 ft | 491 kts | 174° |
| 2026-04-25 01:31 | 44.64222 | -121.72150 | 35022 ft | 489 kts | 174° |
| 2026-04-25 01:32 | 44.57519 | -121.70641 | 34995 ft | 486 kts | 174° |
| 2026-04-25 01:32 | 44.50866 | -121.69136 | 35023 ft | 483 kts | 174° |
| 2026-04-25 01:33 | 44.45353 | -121.67893 | 35027 ft | 482 kts | 175° |
| 2026-04-25 01:33 | 44.38740 | -121.66409 | 35022 ft | 481 kts | 175° |
| 2026-04-25 01:34 | 44.31067 | -121.64686 | 35014 ft | 480 kts | 174° |
| 2026-04-25 01:34 | 44.25549 | -121.63410 | 35021 ft | 480 kts | 174° |
| 2026-04-25 01:35 | 44.19009 | -121.61883 | 35008 ft | 480 kts | 174° |
| 2026-04-25 01:35 | 44.12420 | -121.60352 | 34982 ft | 480 kts | 174° |
| 2026-04-25 01:36 | 44.05830 | -121.58828 | 34980 ft | 480 kts | 174° |
| 2026-04-25 01:36 | 43.99243 | -121.57310 | 34990 ft | 480 kts | 174° |
| 2026-04-25 01:37 | 43.92649 | -121.55795 | 34982 ft | 480 kts | 174° |
| 2026-04-25 01:37 | 43.86099 | -121.54293 | 34968 ft | 480 kts | 174° |
| 2026-04-25 01:38 | 43.79505 | -121.52783 | 34966 ft | 480 kts | 174° |
| 2026-04-25 01:38 | 43.72916 | -121.51278 | 34967 ft | 480 kts | 174° |
| 2026-04-25 01:39 | 43.66333 | -121.49778 | 34937 ft | 479 kts | 174° |
| 2026-04-25 01:39 | 43.59768 | -121.48285 | 34942 ft | 478 kts | 174° |
| 2026-04-25 01:40 | 43.53214 | -121.46798 | 34940 ft | 477 kts | 174° |
| 2026-04-25 01:40 | 43.46718 | -121.45328 | 34939 ft | 476 kts | 174° |
| 2026-04-25 01:41 | 43.40196 | -121.43855 | 34940 ft | 474 kts | 174° |
| 2026-04-25 01:41 | 43.33687 | -121.42388 | 34925 ft | 473 kts | 174° |
| 2026-04-25 01:42 | 43.27194 | -121.40927 | 34920 ft | 472 kts | 174° |
| 2026-04-25 01:42 | 43.20721 | -121.39475 | 34935 ft | 471 kts | 174° |
| 2026-04-25 01:43 | 43.14256 | -121.38027 | 34931 ft | 470 kts | 174° |
| 2026-04-25 01:43 | 43.07807 | -121.36586 | 34938 ft | 469 kts | 174° |
| 2026-04-25 01:44 | 43.01406 | -121.35159 | 34928 ft | 469 kts | 174° |
| 2026-04-25 01:44 | 42.94968 | -121.33726 | 34931 ft | 469 kts | 174° |
| 2026-04-25 01:45 | 42.88531 | -121.32297 | 34923 ft | 468 kts | 174° |
| 2026-04-25 01:45 | 42.82103 | -121.30873 | 34915 ft | 468 kts | 174° |
| 2026-04-25 01:46 | 42.75676 | -121.29455 | 34922 ft | 468 kts | 174° |
| 2026-04-25 01:46 | 42.69290 | -121.28048 | 34920 ft | 468 kts | 174° |
| 2026-04-25 01:47 | 42.62864 | -121.26635 | 34922 ft | 468 kts | 174° |
| 2026-04-25 01:47 | 42.56431 | -121.25223 | 34916 ft | 468 kts | 174° |
| 2026-04-25 01:48 | 42.50004 | -121.23815 | 34913 ft | 468 kts | 174° |
| 2026-04-25 01:48 | 42.43583 | -121.22411 | 34904 ft | 467 kts | 174° |
| 2026-04-25 01:49 | 42.37227 | -121.21024 | 34905 ft | 465 kts | 174° |
| 2026-04-25 01:49 | 42.30838 | -121.19633 | 34893 ft | 464 kts | 174° |
| 2026-04-25 01:50 | 42.24472 | -121.18250 | 34903 ft | 463 kts | 174° |
| 2026-04-25 01:50 | 42.18122 | -121.16873 | 34902 ft | 462 kts | 174° |
| 2026-04-25 01:51 | 42.11781 | -121.15501 | 34903 ft | 461 kts | 174° |
| 2026-04-25 01:51 | 42.05493 | -121.14143 | 34902 ft | 460 kts | 175° |
| 2026-04-25 01:52 | 41.99172 | -121.12781 | 34883 ft | 459 kts | 174° |
| 2026-04-25 01:52 | 41.92865 | -121.11425 | 34882 ft | 459 kts | 174° |
| 2026-04-25 01:53 | 41.86570 | -121.10073 | 34875 ft | 458 kts | 175° |
| 2026-04-25 01:53 | 41.80329 | -121.08737 | 34878 ft | 457 kts | 175° |
| 2026-04-25 01:54 | 41.74049 | -121.07394 | 34881 ft | 457 kts | 175° |
| 2026-04-25 01:54 | 41.67772 | -121.06055 | 34878 ft | 457 kts | 175° |
| 2026-04-25 01:55 | 41.61494 | -121.04718 | 34877 ft | 457 kts | 174° |
| 2026-04-25 01:55 | 41.55219 | -121.03384 | 34875 ft | 457 kts | 174° |
| 2026-04-25 01:56 | 41.48940 | -121.02053 | 34882 ft | 457 kts | 174° |
| 2026-04-25 01:56 | 41.42705 | -121.00733 | 34887 ft | 457 kts | 174° |
| 2026-04-25 01:57 | 41.33289 | -120.98744 | 34885 ft | 457 kts | 174° |
| 2026-04-25 01:58 | 41.27014 | -120.97422 | 34885 ft | 456 kts | 174° |
| 2026-04-25 01:58 | 41.20742 | -120.96103 | 34877 ft | 456 kts | 174° |
| 2026-04-25 01:59 | 41.14520 | -120.94797 | 34879 ft | 455 kts | 175° |
| 2026-04-25 01:59 | 41.08258 | -120.93485 | 34887 ft | 455 kts | 175° |
| 2026-04-25 02:00 | 41.02002 | -120.92177 | 34889 ft | 455 kts | 175° |
| 2026-04-25 02:00 | 40.95740 | -120.91216 | 34898 ft | 451 kts | 180° |
| 2026-04-25 02:01 | 40.89521 | -120.90788 | 34901 ft | 450 kts | 181° |
| 2026-04-25 02:01 | 40.83256 | -120.90394 | 34893 ft | 451 kts | 181° |
| 2026-04-25 02:02 | 40.76987 | -120.89939 | 34883 ft | 451 kts | 181° |
| 2026-04-25 02:02 | 40.70727 | -120.89448 | 34892 ft | 451 kts | 181° |
| 2026-04-25 02:03 | 40.64466 | -120.88947 | 34900 ft | 451 kts | 181° |
| 2026-04-25 02:03 | 40.58252 | -120.88451 | 34888 ft | 450 kts | 181° |
| 2026-04-25 02:04 | 40.52006 | -120.87954 | 34895 ft | 450 kts | 181° |
| 2026-04-25 02:04 | 40.45758 | -120.87459 | 34901 ft | 450 kts | 181° |
| 2026-04-25 02:05 | 40.39514 | -120.86966 | 34904 ft | 450 kts | 181° |
| 2026-04-25 02:05 | 40.33307 | -120.86476 | 34904 ft | 450 kts | 181° |
| 2026-04-25 02:06 | 40.27056 | -120.85984 | 34901 ft | 450 kts | 181° |
| 2026-04-25 02:06 | 40.20799 | -120.85493 | 34895 ft | 450 kts | 181° |
| 2026-04-25 02:07 | 40.14552 | -120.85003 | 34905 ft | 449 kts | 181° |
| 2026-04-25 02:07 | 40.08348 | -120.84517 | 34902 ft | 450 kts | 181° |
| 2026-04-25 02:08 | 40.02108 | -120.84029 | 34915 ft | 449 kts | 181° |
| 2026-04-25 02:08 | 39.95865 | -120.83542 | 34922 ft | 449 kts | 181° |
| 2026-04-25 02:09 | 39.89620 | -120.83056 | 34919 ft | 449 kts | 181° |
| 2026-04-25 02:09 | 39.83379 | -120.82571 | 34923 ft | 449 kts | 181° |
| 2026-04-25 02:10 | 39.77183 | -120.82090 | 34926 ft | 449 kts | 181° |
| 2026-04-25 02:10 | 39.70950 | -120.81609 | 34939 ft | 448 kts | 181° |
| 2026-04-25 02:11 | 39.64727 | -120.81151 | 34934 ft | 447 kts | 181° |
| 2026-04-25 02:11 | 39.58548 | -120.80694 | 34918 ft | 448 kts | 181° |
| 2026-04-25 02:12 | 39.52317 | -120.80187 | 34930 ft | 449 kts | 181° |
| 2026-04-25 02:12 | 39.46081 | -120.79694 | 34911 ft | 449 kts | 181° |
| 2026-04-25 02:13 | 39.39850 | -120.79211 | 34923 ft | 449 kts | 181° |
| 2026-04-25 02:13 | 39.33656 | -120.78734 | 35008 ft | 449 kts | 181° |
| 2026-04-25 02:14 | 39.27419 | -120.78260 | 35006 ft | 449 kts | 181° |
| 2026-04-25 02:14 | 39.21184 | -120.77785 | 35018 ft | 449 kts | 181° |
| 2026-04-25 02:15 | 39.14942 | -120.77310 | 35022 ft | 449 kts | 181° |
| 2026-04-25 02:15 | 39.08735 | -120.76837 | 34967 ft | 450 kts | 181° |
| 2026-04-25 02:16 | 39.02492 | -120.76362 | 34942 ft | 450 kts | 181° |
| 2026-04-25 02:16 | 38.96242 | -120.75887 | 34931 ft | 450 kts | 181° |
| 2026-04-25 02:17 | 38.89989 | -120.75416 | 34945 ft | 450 kts | 181° |
| 2026-04-25 02:17 | 38.83778 | -120.74947 | 34969 ft | 450 kts | 181° |
| 2026-04-25 02:18 | 38.77522 | -120.74475 | 34976 ft | 450 kts | 181° |
| 2026-04-25 02:18 | 38.71270 | -120.74004 | 34953 ft | 450 kts | 181° |
| 2026-04-25 02:19 | 38.65025 | -120.73535 | 34913 ft | 449 kts | 181° |
| 2026-04-25 02:19 | 38.58781 | -120.73067 | 34925 ft | 449 kts | 181° |
| 2026-04-25 02:20 | 38.52540 | -120.72599 | 34929 ft | 450 kts | 181° |
| 2026-04-25 02:20 | 38.46297 | -120.72132 | 34934 ft | 449 kts | 181° |
| 2026-04-25 02:21 | 38.40053 | -120.71667 | 34938 ft | 449 kts | 181° |
| 2026-04-25 02:21 | 38.33812 | -120.71202 | 34919 ft | 449 kts | 181° |
| 2026-04-25 02:22 | 38.27575 | -120.70738 | 34930 ft | 449 kts | 182° |
| 2026-04-25 02:22 | 38.21336 | -120.70275 | 34931 ft | 449 kts | 182° |
| 2026-04-25 02:23 | 38.15105 | -120.69812 | 34922 ft | 448 kts | 182° |
| 2026-04-25 02:23 | 38.08891 | -120.69352 | 34927 ft | 447 kts | 182° |
| 2026-04-25 02:24 | 38.02721 | -120.68897 | 34938 ft | 447 kts | 182° |
| 2026-04-25 02:24 | 37.96473 | -120.68437 | 34898 ft | 447 kts | 182° |
| 2026-04-25 02:25 | 37.90270 | -120.67980 | 34896 ft | 446 kts | 182° |
| 2026-04-25 02:25 | 37.84067 | -120.67524 | 34890 ft | 447 kts | 182° |
| 2026-04-25 02:26 | 37.77861 | -120.67069 | 34894 ft | 447 kts | 182° |
| 2026-04-25 02:26 | 37.71700 | -120.66617 | 34881 ft | 446 kts | 182° |
| 2026-04-25 02:27 | 37.65501 | -120.66164 | 34881 ft | 446 kts | 182° |
| 2026-04-25 02:27 | 37.59305 | -120.65712 | 34887 ft | 446 kts | 182° |
| 2026-04-25 02:28 | 37.53113 | -120.65261 | 34875 ft | 446 kts | 183° |
| 2026-04-25 02:28 | 37.46923 | -120.64810 | 34886 ft | 445 kts | 183° |
| 2026-04-25 02:29 | 37.40739 | -120.64361 | 34890 ft | 445 kts | 183° |
| 2026-04-25 02:29 | 37.34552 | -120.63911 | 34890 ft | 445 kts | 182° |
| 2026-04-25 02:30 | 37.28389 | -120.62462 | 34897 ft | 455 kts | 172° |
| 2026-04-25 02:30 | 37.22267 | -120.60400 | 34897 ft | 456 kts | 172° |
| 2026-04-25 02:31 | 37.16137 | -120.58345 | 34895 ft | 456 kts | 172° |
| 2026-04-25 02:31 | 37.10003 | -120.56334 | 34889 ft | 456 kts | 173° |
| 2026-04-25 02:32 | 37.03856 | -120.54345 | 34893 ft | 456 kts | 173° |
| 2026-04-25 02:32 | 36.97709 | -120.52364 | 34893 ft | 457 kts | 173° |
| 2026-04-25 02:33 | 36.91549 | -120.50379 | 34884 ft | 457 kts | 174° |
| 2026-04-25 02:33 | 36.85395 | -120.48399 | 34889 ft | 457 kts | 174° |
| 2026-04-25 02:34 | 36.79238 | -120.46421 | 34891 ft | 457 kts | 174° |
| 2026-04-25 02:34 | 36.73087 | -120.44448 | 34884 ft | 456 kts | 175° |
| 2026-04-25 02:35 | 36.66948 | -120.42482 | 34887 ft | 455 kts | 175° |
| 2026-04-25 02:35 | 36.60817 | -120.40522 | 34894 ft | 454 kts | 175° |
| 2026-04-25 02:36 | 36.54697 | -120.38570 | 34903 ft | 454 kts | 175° |
| 2026-04-25 02:36 | 36.48624 | -120.36635 | 34897 ft | 454 kts | 175° |
| 2026-04-25 02:37 | 36.42513 | -120.34690 | 34898 ft | 453 kts | 175° |
| 2026-04-25 02:37 | 36.36401 | -120.32750 | 34878 ft | 453 kts | 175° |
| 2026-04-25 02:38 | 36.30297 | -120.30814 | 34892 ft | 452 kts | 175° |
| 2026-04-25 02:38 | 36.24201 | -120.28885 | 34895 ft | 452 kts | 175° |
| 2026-04-25 02:39 | 36.18113 | -120.26960 | 34895 ft | 451 kts | 175° |
| 2026-04-25 02:39 | 36.12030 | -120.25040 | 34889 ft | 451 kts | 175° |
| 2026-04-25 02:40 | 36.05995 | -120.23140 | 34906 ft | 451 kts | 175° |
| 2026-04-25 02:40 | 35.99918 | -120.21229 | 34896 ft | 451 kts | 175° |
| 2026-04-25 02:41 | 35.93835 | -120.19319 | 34901 ft | 451 kts | 175° |
| 2026-04-25 02:41 | 35.87763 | -120.17359 | 34911 ft | 450 kts | 176° |
| 2026-04-25 02:42 | 35.81695 | -120.15499 | 34899 ft | 449 kts | 176° |
| 2026-04-25 02:42 | 35.75632 | -120.13614 | 34883 ft | 449 kts | 175° |
| 2026-04-25 02:43 | 35.69629 | -120.11746 | 34916 ft | 448 kts | 175° |
| 2026-04-25 02:43 | 35.63740 | -120.08902 | 34949 ft | 471 kts | 157° |
| 2026-04-25 02:44 | 35.58196 | -120.04568 | 34897 ft | 472 kts | 157° |
| 2026-04-25 02:44 | 35.52638 | -120.00282 | 34916 ft | 471 kts | 158° |
| 2026-04-25 02:45 | 35.47055 | -119.96052 | 34922 ft | 472 kts | 158° |
| 2026-04-25 02:45 | 35.41457 | -119.91849 | 34907 ft | 473 kts | 158° |
| 2026-04-25 02:46 | 35.35878 | -119.87665 | 34725 ft | 476 kts | 158° |
| 2026-04-25 02:46 | 35.33046 | -119.85545 | 34282 ft | 477 kts | 158° |
| 2026-04-25 02:46 | 35.30223 | -119.83427 | 33789 ft | 473 kts | 158° |
| 2026-04-25 02:46 | 35.27491 | -119.81299 | 33740 ft | 462 kts | 155° |
| 2026-04-25 02:47 | 35.24886 | -119.78980 | 33394 ft | 466 kts | 152° |
| 2026-04-25 02:47 | 35.22302 | -119.76519 | 33149 ft | 476 kts | 151° |
| 2026-04-25 02:47 | 35.19679 | -119.73980 | 32892 ft | 485 kts | 151° |
| 2026-04-25 02:47 | 35.17006 | -119.71407 | 32635 ft | 490 kts | 151° |
| 2026-04-25 02:48 | 35.14320 | -119.68846 | 32229 ft | 490 kts | 151° |
| 2026-04-25 02:48 | 35.11617 | -119.66299 | 31493 ft | 489 kts | 150° |
| 2026-04-25 02:48 | 35.08935 | -119.63787 | 30987 ft | 484 kts | 150° |
| 2026-04-25 02:48 | 35.06304 | -119.61337 | 30436 ft | 480 kts | 150° |
| 2026-04-25 02:49 | 35.03661 | -119.58882 | 29854 ft | 476 kts | 150° |
| 2026-04-25 02:49 | 35.01035 | -119.56446 | 29248 ft | 472 kts | 150° |
| 2026-04-25 02:49 | 34.98433 | -119.54036 | 28694 ft | 467 kts | 150° |
| 2026-04-25 02:49 | 34.95858 | -119.51652 | 28139 ft | 463 kts | 149° |
| 2026-04-25 02:50 | 34.93324 | -119.49255 | 27602 ft | 459 kts | 149° |
| 2026-04-25 02:50 | 34.90790 | -119.46922 | 27064 ft | 455 kts | 150° |
| 2026-04-25 02:50 | 34.88245 | -119.44642 | 26461 ft | 453 kts | 151° |
| 2026-04-25 02:50 | 34.85703 | -119.42393 | 25916 ft | 450 kts | 151° |
| 2026-04-25 02:51 | 34.83177 | -119.40160 | 25412 ft | 447 kts | 150° |
| 2026-04-25 02:51 | 34.80680 | -119.37924 | 24899 ft | 444 kts | 151° |
| 2026-04-25 02:51 | 34.78192 | -119.35719 | 24375 ft | 442 kts | 150° |
| 2026-04-25 02:51 | 34.75721 | -119.33597 | 23882 ft | 439 kts | 151° |
| 2026-04-25 02:52 | 34.73272 | -119.31374 | 23315 ft | 440 kts | 148° |
| 2026-04-25 02:52 | 34.70839 | -119.29142 | 22771 ft | 436 kts | 150° |
| 2026-04-25 02:52 | 34.68375 | -119.27008 | 22236 ft | 433 kts | 151° |
| 2026-04-25 02:52 | 34.65926 | -119.24902 | 21722 ft | 429 kts | 150° |
| 2026-04-25 02:53 | 34.63498 | -119.22816 | 21227 ft | 427 kts | 150° |
| 2026-04-25 02:53 | 34.61088 | -119.20730 | 20737 ft | 424 kts | 150° |
| 2026-04-25 02:53 | 34.58690 | -119.18672 | 20238 ft | 421 kts | 150° |
| 2026-04-25 02:53 | 34.56312 | -119.16624 | 19757 ft | 418 kts | 150° |
| 2026-04-25 02:54 | 34.53963 | -119.14559 | 19284 ft | 416 kts | 149° |
| 2026-04-25 02:54 | 34.51635 | -119.12484 | 18797 ft | 414 kts | 149° |
| 2026-04-25 02:54 | 34.49315 | -119.10421 | 18292 ft | 413 kts | 149° |
| 2026-04-25 02:54 | 34.47046 | -119.08370 | 17738 ft | 411 kts | 148° |
| 2026-04-25 02:55 | 34.44763 | -119.06358 | 17227 ft | 399 kts | 149° |
| 2026-04-25 02:55 | 34.42547 | -119.04440 | 16846 ft | 385 kts | 149° |
| 2026-04-25 02:55 | 34.40392 | -119.02590 | 16385 ft | 377 kts | 149° |
| 2026-04-25 02:55 | 34.38265 | -119.00754 | 15965 ft | 374 kts | 149° |
| 2026-04-25 02:56 | 34.36151 | -118.98926 | 15498 ft | 372 kts | 149° |
| 2026-04-25 02:56 | 34.34050 | -118.97107 | 15059 ft | 371 kts | 148° |
| 2026-04-25 02:56 | 34.31978 | -118.95250 | 14609 ft | 370 kts | 147° |
| 2026-04-25 02:56 | 34.29925 | -118.93374 | 14140 ft | 369 kts | 147° |
| 2026-04-25 02:57 | 34.27879 | -118.91507 | 13668 ft | 367 kts | 147° |
| 2026-04-25 02:57 | 34.25893 | -118.89699 | 13155 ft | 357 kts | 147° |
| 2026-04-25 02:57 | 34.23942 | -118.87914 | 12706 ft | 349 kts | 147° |
| 2026-04-25 02:57 | 34.22020 | -118.86146 | 12335 ft | 345 kts | 146° |
| 2026-04-25 02:58 | 34.20152 | -118.84426 | 12298 ft | 331 kts | 146° |
| 2026-04-25 02:58 | 34.18344 | -118.82764 | 12158 ft | 321 kts | 146° |
| 2026-04-25 02:58 | 34.16594 | -118.81155 | 12021 ft | 312 kts | 146° |
| 2026-04-25 02:58 | 34.14929 | -118.79474 | 11701 ft | 311 kts | 141° |
| 2026-04-25 02:59 | 34.13336 | -118.77723 | 11368 ft | 309 kts | 140° |
| 2026-04-25 02:59 | 34.12291 | -118.76559 | 11129 ft | 309 kts | 140° |
| 2026-04-25 02:59 | 34.10182 | -118.74221 | 10685 ft | 307 kts | 140° |
| 2026-04-25 02:59 | 34.09154 | -118.73054 | 10449 ft | 306 kts | 140° |
| 2026-04-25 03:00 | 34.07074 | -118.70798 | 10131 ft | 299 kts | 141° |
| 2026-04-25 03:00 | 34.05513 | -118.69190 | 9936 ft | 293 kts | 140° |
| 2026-04-25 03:00 | 34.04054 | -118.67472 | 9632 ft | 292 kts | 135° |
| 2026-04-25 03:00 | 34.02960 | -118.65422 | 9276 ft | 295 kts | 109° |
| 2026-04-25 03:01 | 34.02581 | -118.63008 | 8995 ft | 292 kts | 97° |
| 2026-04-25 03:01 | 34.02375 | -118.60582 | 8665 ft | 291 kts | 96° |
| 2026-04-25 03:01 | 34.02240 | -118.58969 | 8448 ft | 290 kts | 97° |
| 2026-04-25 03:01 | 34.02026 | -118.56553 | 8123 ft | 289 kts | 97° |
| 2026-04-25 03:02 | 34.01809 | -118.54152 | 7857 ft | 287 kts | 97° |
| 2026-04-25 03:02 | 34.01590 | -118.51787 | 7639 ft | 281 kts | 97° |
| 2026-04-25 03:02 | 34.01377 | -118.49511 | 7510 ft | 267 kts | 97° |
| 2026-04-25 03:02 | 34.01170 | -118.47315 | 7202 ft | 257 kts | 97° |
| 2026-04-25 03:03 | 34.01052 | -118.45234 | 6967 ft | 244 kts | 85° |
| 2026-04-25 03:03 | 34.01381 | -118.43235 | 6549 ft | 244 kts | 77° |
| 2026-04-25 03:03 | 34.01762 | -118.41238 | 6113 ft | 245 kts | 78° |
| 2026-04-25 03:03 | 34.02120 | -118.39242 | 5662 ft | 244 kts | 79° |
| 2026-04-25 03:04 | 34.02471 | -118.37240 | 5213 ft | 243 kts | 79° |
| 2026-04-25 03:04 | 34.02801 | -118.35249 | 4771 ft | 241 kts | 82° |
| 2026-04-25 03:04 | 34.03016 | -118.33265 | 4355 ft | 237 kts | 84° |
| 2026-04-25 03:05 | 34.03387 | -118.29424 | 3748 ft | 223 kts | 83° |
| 2026-04-25 03:05 | 34.03574 | -118.27624 | 3491 ft | 218 kts | 83° |
| 2026-04-25 03:05 | 34.03757 | -118.25811 | 3243 ft | 219 kts | 84° |
| 2026-04-25 03:05 | 34.03930 | -118.23976 | 3006 ft | 222 kts | 85° |
| 2026-04-25 03:06 | 34.04092 | -118.22115 | 2767 ft | 225 kts | 85° |
| 2026-04-25 03:06 | 34.04244 | -118.20252 | 2636 ft | 224 kts | 86° |
| 2026-04-25 03:06 | 34.04259 | -118.18380 | 2590 ft | 222 kts | 104° |
| 2026-04-25 03:06 | 34.03542 | -118.16859 | 2586 ft | 201 kts | 141° |
| 2026-04-25 03:07 | 34.02339 | -118.16212 | 2596 ft | 186 kts | 172° |
| 2026-04-25 03:07 | 34.01055 | -118.16095 | 2585 ft | 186 kts | 189° |
| 2026-04-25 03:07 | 33.99955 | -118.16809 | 2607 ft | 182 kts | 226° |
| 2026-04-25 03:07 | 33.99155 | -118.17966 | 2612 ft | 183 kts | 231° |
| 2026-04-25 03:08 | 33.98364 | -118.19182 | 2617 ft | 186 kts | 231° |
| 2026-04-25 03:08 | 33.97584 | -118.20409 | 2600 ft | 184 kts | 232° |
| 2026-04-25 03:08 | 33.97088 | -118.21795 | 2598 ft | 182 kts | 264° |
| 2026-04-25 03:08 | 33.96983 | -118.23334 | 2614 ft | 187 kts | 261° |
| 2026-04-25 03:09 | 33.96807 | -118.24872 | 2565 ft | 186 kts | 261° |
| 2026-04-25 03:09 | 33.96638 | -118.26424 | 2356 ft | 187 kts | 261° |
| 2026-04-25 03:09 | 33.96476 | -118.27963 | 2104 ft | 183 kts | 261° |
| 2026-04-25 03:09 | 33.96321 | -118.29465 | 1863 ft | 179 kts | 260° |
| 2026-04-25 03:10 | 33.96167 | -118.30946 | 1644 ft | 174 kts | 262° |
| 2026-04-25 03:10 | 33.96025 | -118.32323 | 1379 ft | 158 kts | 259° |
| 2026-04-25 03:10 | 33.95895 | -118.33578 | 1196 ft | 151 kts | 260° |
| 2026-04-25 03:10 | 33.95766 | -118.34811 | 1003 ft | 150 kts | 261° |
| 2026-04-25 03:11 | 33.95641 | -118.36034 | 804 ft | 144 kts | 262° |
| 2026-04-25 03:11 | 33.95517 | -118.37212 | 598 ft | 141 kts | 262° |
| 2026-04-25 03:11 | 33.95393 | -118.38384 | 414 ft | 143 kts | 262° |
| 2026-04-25 03:11 | 33.95274 | -118.39570 | 223 ft | 144 kts | 262° |
| 2026-04-25 03:12 | 33.95152 | -118.40768 | 92 ft | 139 kts | 262° |
| 2026-04-25 03:12 | 33.95056 | -118.41703 | 93 ft | 81 kts | 263° |
| 2026-04-25 03:12 | 33.95009 | -118.42162 | 93 ft | 35 kts | 263° |
| 2026-04-25 03:12 | 33.94934 | -118.42377 | 93 ft | 21 kts | 232° |
| 2026-04-25 03:13 | 33.94835 | -118.42477 | 98 ft | 19 kts | 197° |
| 2026-04-25 03:13 | 33.94720 | -118.42482 | 98 ft | 13 kts | 173° |
| 2026-04-25 03:13 | 33.94665 | -118.42411 | 97 ft | 13 kts | 87° |
| 2026-04-25 03:13 | 33.94675 | -118.42301 | 95 ft | 14 kts | 82° |
| 2026-04-25 03:14 | 33.94690 | -118.42165 | 96 ft | 18 kts | 83° |
| 2026-04-25 03:14 | 33.94706 | -118.41998 | 92 ft | 21 kts | 83° |
| 2026-04-25 03:14 | 33.94723 | -118.41828 | 92 ft | 20 kts | 83° |
| 2026-04-25 03:14 | 33.94740 | -118.41663 | 92 ft | 20 kts | 83° |
| 2026-04-25 03:15 | 33.94756 | -118.41504 | 93 ft | 19 kts | 83° |
| 2026-04-25 03:15 | 33.94786 | -118.41353 | 93 ft | 18 kts | 78° |
| 2026-04-25 03:15 | 33.94801 | -118.41204 | 94 ft | 18 kts | 82° |
| 2026-04-25 03:15 | 33.94816 | -118.41059 | 94 ft | 18 kts | 83° |
| 2026-04-25 03:16 | 33.94833 | -118.40892 | 94 ft | 22 kts | 83° |
| 2026-04-25 03:16 | 33.94851 | -118.40716 | 93 ft | 18 kts | 83° |
| 2026-04-25 03:16 | 33.94832 | -118.40604 | 93 ft | 14 kts | 158° |
| 2026-04-25 03:16 | 33.94746 | -118.40579 | 93 ft | 12 kts | 172° |
| 2026-04-25 03:17 | 33.94681 | -118.40570 | 92 ft | 7 kts | 169° |
| 2026-04-25 03:17 | 33.94658 | -118.40528 | 92 ft | 6 kts | 97° |
| 2026-04-25 03:17 | 33.94654 | -118.40492 | 92 ft | 2 kts | 96° |
| 2026-04-25 03:17 | 33.94654 | -118.40491 | 92 ft | 0 kts | 96° |